Time;durP1;ratioP1;P1;durP2;ratioP2;P2;SDS_P1;SDS_P2;PMS_P1;PMS_P2;Temp;Humidity;BMP_temperature;BMP_pressure;BME280_temperature;BME280_humidity;BME280_pressure;Samples;Min_cycle;Max_cycle;Signal;HPM_P1;HPM_P2
2022/08/28 00:02:07;;;;;;;;;5.25;5.25;;;;;;;;5022262;28;8809;-78
2022/08/28 00:04:35;;;;;;;;;3.50;3.50;;;;;;;;5001830;28;9706;-78
2022/08/28 00:07:03;;;;;;;;;5.50;5.50;;;;;;;;5021067;28;8881;-77
2022/08/28 00:09:32;;;;;;;;;3.00;3.00;;;;;;;;5019990;28;8887;-78
2022/08/28 00:12:00;;;;;;;;;4.00;4.00;;;;;;;;5020566;28;8883;-78
2022/08/28 00:14:27;;;;;;;;;4.00;4.00;;;;;;;;5020020;28;8873;-78
2022/08/28 00:16:55;;;;;;;;;5.75;3.00;;;;;;;;5020648;28;8893;-79
2022/08/28 00:19:23;;;;;;;;;4.00;4.00;;;;;;;;5015734;28;8975;-78
2022/08/28 00:21:51;;;;;;;;;3.00;3.00;;;;;;;;5019079;28;8885;-77
2022/08/28 00:24:18;;;;;;;;;3.50;3.50;;;;;;;;5018528;28;8898;-77
2022/08/28 00:29:32;;;;;;;;;3.75;3.75;;;;;;;;5019990;28;8982;-77
2022/08/28 00:32:00;;;;;;;;;3.75;3.75;;;;;;;;5017108;28;8835;-78
2022/08/28 00:34:27;;;;;;;;;6.25;5.00;;;;;;;;5020263;28;8888;-77
2022/08/28 00:36:54;;;;;;;;;3.75;3.00;;;;;;;;5019115;28;8958;-77
2022/08/28 00:39:22;;;;;;;;;4.00;4.00;;;;;;;;5017978;28;8876;-77
2022/08/28 00:41:51;;;;;;;;;3.25;3.25;;;;;;;;5017322;28;8877;-77
2022/08/28 00:44:21;;;;;;;;;4.00;4.00;;;;;;;;5018028;28;8904;-77
2022/08/28 00:46:50;;;;;;;;;4.00;4.00;;;;;;;;5018779;28;8888;-77
2022/08/28 00:49:21;;;;;;;;;3.25;3.00;;;;;;;;5018641;28;9037;-75
2022/08/28 00:52:07;;;;;;;;;3.50;3.50;;;;;;;;5019354;28;8896;-75
2022/08/28 00:54:36;;;;;;;;;3.00;3.00;;;;;;;;5017876;28;8863;-75
2022/08/28 00:57:07;;;;;;;;;4.00;4.00;;;;;;;;5018796;28;8861;-76
2022/08/28 00:59:36;;;;;;;;;4.00;4.00;;;;;;;;5019802;28;8861;-75
2022/08/28 01:02:05;;;;;;;;;4.00;4.00;;;;;;;;5015626;28;9618;-76
2022/08/28 01:04:33;;;;;;;;;3.75;3.75;;;;;;;;5019645;28;8969;-76
2022/08/28 01:07:05;;;;;;;;;3.00;3.00;;;;;;;;5019170;28;9690;-76
2022/08/28 01:09:33;;;;;;;;;3.50;3.50;;;;;;;;5017858;28;9054;-76
2022/08/28 01:12:07;;;;;;;;;3.00;3.00;;;;;;;;5003911;28;8861;-76
2022/08/28 01:14:37;;;;;;;;;4.75;3.75;;;;;;;;5018997;28;9063;-76
2022/08/28 01:17:05;;;;;;;;;3.25;3.25;;;;;;;;5017003;28;8867;-77
2022/08/28 01:19:37;;;;;;;;;4.75;4.00;;;;;;;;5019904;28;9773;-77
2022/08/28 01:22:15;;;;;;;;;8.00;5.00;;;;;;;;5021026;28;8893;-77
2022/08/28 01:24:45;;;;;;;;;5.50;3.00;;;;;;;;5019896;28;8849;-77
2022/08/28 01:27:13;;;;;;;;;5.50;4.50;;;;;;;;5021644;28;8911;-76
2022/08/28 01:29:41;;;;;;;;;3.00;2.50;;;;;;;;5018794;28;8990;-77
2022/08/28 01:32:08;;;;;;;;;3.25;3.25;;;;;;;;5018329;28;8845;-75
2022/08/28 01:34:36;;;;;;;;;1.00;1.00;;;;;;;;5018641;28;8891;-75
2022/08/28 01:37:03;;;;;;;;;4.25;4.25;;;;;;;;5021694;28;8966;-75
2022/08/28 01:39:30;;;;;;;;;4.00;4.00;;;;;;;;5022295;28;8999;-75
2022/08/28 01:41:59;;;;;;;;;5.25;5.25;;;;;;;;5007678;28;8879;-75
2022/08/28 01:44:27;;;;;;;;;4.75;3.75;;;;;;;;5023948;28;8885;-74
2022/08/28 01:46:56;;;;;;;;;3.50;3.50;;;;;;;;5022427;28;8860;-75
2022/08/28 01:49:27;;;;;;;;;5.00;5.00;;;;;;;;5003554;28;8907;-75
2022/08/28 01:51:56;;;;;;;;;4.00;3.75;;;;;;;;5020992;28;8933;-75
2022/08/28 01:54:25;;;;;;;;;4.00;4.00;;;;;;;;5019481;28;8869;-75
2022/08/28 01:56:52;;;;;;;;;5.75;5.75;;;;;;;;5023265;28;8920;-75
2022/08/28 01:59:21;;;;;;;;;4.00;4.00;;;;;;;;5021751;28;9643;-75
2022/08/28 02:01:49;;;;;;;;;4.00;4.00;;;;;;;;5019038;28;8866;-76
2022/08/28 02:04:16;;;;;;;;;5.00;5.00;;;;;;;;5023104;28;8961;-77
2022/08/28 02:06:44;;;;;;;;;5.75;5.75;;;;;;;;4987201;28;8893;-76
2022/08/28 02:09:12;;;;;;;;;4.50;4.50;;;;;;;;5022767;28;8889;-75
2022/08/28 02:11:42;;;;;;;;;4.25;4.00;;;;;;;;5022702;28;8995;-76
2022/08/28 02:14:09;;;;;;;;;4.00;4.00;;;;;;;;5023207;28;8951;-76
2022/08/28 02:16:38;;;;;;;;;5.00;5.00;;;;;;;;5023221;28;9597;-76
2022/08/28 02:19:05;;;;;;;;;4.25;4.00;;;;;;;;5004990;28;8892;-76
2022/08/28 02:21:34;;;;;;;;;7.00;7.00;;;;;;;;5005352;28;8854;-76
2022/08/28 02:24:02;;;;;;;;;4.67;4.67;;;;;;;;5021679;28;8995;-76
2022/08/28 02:26:30;;;;;;;;;6.75;5.25;;;;;;;;5023528;28;9111;-75
2022/08/28 02:28:58;;;;;;;;;5.50;4.25;;;;;;;;5020024;28;8864;-75
2022/08/28 02:31:25;;;;;;;;;6.00;6.00;;;;;;;;5022585;28;9606;-76
2022/08/28 02:33:55;;;;;;;;;3.33;3.33;;;;;;;;5005428;28;9105;-75
2022/08/28 02:36:22;;;;;;;;;7.67;5.33;;;;;;;;5023576;28;8978;-76
2022/08/28 02:38:51;;;;;;;;;5.33;5.33;;;;;;;;5021360;28;9137;-75
2022/08/28 02:41:19;;;;;;;;;4.00;4.00;;;;;;;;5003534;28;9105;-75
2022/08/28 02:43:46;;;;;;;;;4.00;4.00;;;;;;;;5021606;28;9042;-75
2022/08/28 02:46:14;;;;;;;;;6.33;6.33;;;;;;;;5019887;28;9733;-75
2022/08/28 02:48:42;;;;;;;;;9.67;7.33;;;;;;;;5021153;28;9905;-75
2022/08/28 02:51:12;;;;;;;;;5.00;5.00;;;;;;;;5023009;28;10133;-75
2022/08/28 02:53:40;;;;;;;;;4.00;4.00;;;;;;;;5018822;28;9035;-76
2022/08/28 02:56:08;;;;;;;;;6.00;4.33;;;;;;;;5022286;28;9037;-75
2022/08/28 02:58:35;;;;;;;;;6.67;6.67;;;;;;;;5019637;28;9256;-75
2022/08/28 03:01:03;;;;;;;;;4.67;4.67;;;;;;;;5004241;28;9231;-75
2022/08/28 03:03:31;;;;;;;;;4.00;4.00;;;;;;;;5020860;28;9311;-76
2022/08/28 03:06:00;;;;;;;;;4.33;4.33;;;;;;;;5022887;28;9110;-77
2022/08/28 03:08:30;;;;;;;;;6.00;6.00;;;;;;;;5019083;28;9280;-76
2022/08/28 03:10:58;;;;;;;;;4.33;4.33;;;;;;;;5022425;28;9294;-76
2022/08/28 03:13:25;;;;;;;;;5.33;5.33;;;;;;;;5019598;28;9902;-76
2022/08/28 03:15:53;;;;;;;;;5.67;5.67;;;;;;;;5021050;28;9447;-77
2022/08/28 03:18:20;;;;;;;;;6.00;6.00;;;;;;;;5020319;28;9089;-76
2022/08/28 03:20:48;;;;;;;;;6.67;6.00;;;;;;;;5003498;28;9272;-76
2022/08/28 03:23:27;;;;;;;;;7.33;5.00;;;;;;;;5021670;28;9369;-76
2022/08/28 03:25:58;;;;;;;;;5.33;5.00;;;;;;;;5020424;28;10102;-76
2022/08/28 03:28:27;;;;;;;;;4.00;4.00;;;;;;;;5022000;28;9213;-76
2022/08/28 03:30:54;;;;;;;;;11.33;5.67;;;;;;;;5020002;28;9321;-76
2022/08/28 03:33:22;;;;;;;;;5.00;5.00;;;;;;;;5022947;28;9237;-75
2022/08/28 03:35:49;;;;;;;;;5.00;5.00;;;;;;;;5020175;28;9155;-75
2022/08/28 03:38:16;;;;;;;;;5.33;5.00;;;;;;;;5020661;28;9303;-76
2022/08/28 03:40:46;;;;;;;;;4.67;4.67;;;;;;;;5004534;28;9208;-75
2022/08/28 03:43:17;;;;;;;;;7.00;7.00;;;;;;;;5022012;28;9110;-75
2022/08/28 03:45:52;;;;;;;;;6.33;6.33;;;;;;;;5022182;28;9310;-76
2022/08/28 03:48:20;;;;;;;;;4.67;4.67;;;;;;;;5018012;28;9196;-76
2022/08/28 03:50:47;;;;;;;;;4.00;4.00;;;;;;;;5019133;28;9134;-75
2022/08/28 03:53:14;;;;;;;;;6.33;6.33;;;;;;;;5022064;28;9122;-76
2022/08/28 03:55:42;;;;;;;;;5.00;5.00;;;;;;;;5018970;28;9993;-75
2022/08/28 03:58:09;;;;;;;;;10.67;6.00;;;;;;;;5021911;28;9260;-75
2022/08/28 04:00:40;;;;;;;;;7.00;5.00;;;;;;;;5018979;28;8939;-75
2022/08/28 04:03:07;;;;;;;;;9.00;6.00;;;;;;;;5019380;28;9068;-76
2022/08/28 04:05:36;;;;;;;;;4.67;4.67;;;;;;;;5021878;28;9257;-76
2022/08/28 04:08:03;;;;;;;;;8.67;6.33;;;;;;;;5018699;28;9116;-76
2022/08/28 04:10:31;;;;;;;;;2.67;2.00;;;;;;;;5017930;28;9052;-75
2022/08/28 04:12:59;;;;;;;;;9.00;5.00;;;;;;;;5018561;28;9155;-75
2022/08/28 04:15:26;;;;;;;;;5.33;5.33;;;;;;;;5021885;28;9029;-76
2022/08/28 04:17:55;;;;;;;;;7.00;5.33;;;;;;;;5020769;28;8969;-76
2022/08/28 04:20:23;;;;;;;;;7.00;4.00;;;;;;;;5018189;28;9229;-75
2022/08/28 04:22:50;;;;;;;;;4.67;4.67;;;;;;;;5019848;28;9947;-75
2022/08/28 04:25:18;;;;;;;;;5.00;5.00;;;;;;;;5005088;28;9228;-75
2022/08/28 04:27:45;;;;;;;;;7.50;7.50;;;;;;;;5021059;28;9228;-75
2022/08/28 04:30:13;;;;;;;;;8.67;6.00;;;;;;;;5018603;28;9420;-76
2022/08/28 04:32:41;;;;;;;;;4.75;4.75;;;;;;;;5018574;28;9379;-75
2022/08/28 04:35:11;;;;;;;;;7.00;5.75;;;;;;;;5017831;28;9521;-75
2022/08/28 04:37:39;;;;;;;;;6.50;6.50;;;;;;;;5020248;28;10182;-75
2022/08/28 04:40:08;;;;;;;;;7.00;7.00;;;;;;;;5019164;28;10118;-75
2022/08/28 04:42:36;;;;;;;;;13.00;10.75;;;;;;;;5019644;28;9537;-75
2022/08/28 04:45:05;;;;;;;;;7.25;7.25;;;;;;;;5020541;28;9652;-76
2022/08/28 04:47:36;;;;;;;;;9.75;9.75;;;;;;;;5017653;28;10443;-75
2022/08/28 04:50:05;;;;;;;;;12.50;11.00;;;;;;;;5017315;28;9532;-76
2022/08/28 04:52:34;;;;;;;;;10.75;10.75;;;;;;;;5019351;28;9634;-75
2022/08/28 04:55:02;;;;;;;;;10.00;10.00;;;;;;;;5016395;28;9661;-75
2022/08/28 04:57:29;;;;;;;;;12.50;12.50;;;;;;;;5017405;28;9655;-78
2022/08/28 04:59:57;;;;;;;;;12.50;12.50;;;;;;;;5019924;28;9585;-76
2022/08/28 05:02:24;;;;;;;;;11.00;11.00;;;;;;;;5018697;28;9520;-76
2022/08/28 05:04:51;;;;;;;;;12.50;10.00;;;;;;;;5018509;28;9637;-76
2022/08/28 05:07:19;;;;;;;;;11.00;9.75;;;;;;;;5015983;28;9623;-76
2022/08/28 05:09:48;;;;;;;;;5.00;5.00;;;;;;;;5018472;28;9903;-76
2022/08/28 05:12:16;;;;;;;;;4.50;4.50;;;;;;;;5001890;28;9509;-76
2022/08/28 05:14:44;;;;;;;;;5.00;5.00;;;;;;;;5022436;28;9569;-76
2022/08/28 05:17:14;;;;;;;;;4.67;4.67;;;;;;;;5004801;28;9581;-77
2022/08/28 05:19:42;;;;;;;;;5.00;3.00;;;;;;;;5023396;28;9353;-78
2022/08/28 05:22:09;;;;;;;;;5.00;5.00;;;;;;;;5006569;28;9488;-77
2022/08/28 05:24:38;;;;;;;;;5.50;5.00;;;;;;;;5023903;28;9413;-76
2022/08/28 05:27:07;;;;;;;;;4.50;4.50;;;;;;;;5018988;28;9501;-76
2022/08/28 05:29:34;;;;;;;;;5.00;5.00;;;;;;;;5023985;28;9478;-77
2022/08/28 05:32:02;;;;;;;;;5.33;5.00;;;;;;;;5023030;28;9356;-77
2022/08/28 05:34:30;;;;;;;;;8.25;6.25;;;;;;;;5008233;28;10531;-77
2022/08/28 05:36:58;;;;;;;;;7.33;4.67;;;;;;;;5004985;28;10368;-77
2022/08/28 05:39:25;;;;;;;;;6.50;5.75;;;;;;;;5022390;28;9500;-80
2022/08/28 05:41:52;;;;;;;;;4.67;4.67;;;;;;;;5020878;28;9576;-79
2022/08/28 05:44:21;;;;;;;;;5.00;5.00;;;;;;;;5026915;28;9456;-77
2022/08/28 05:46:48;;;;;;;;;7.33;5.67;;;;;;;;5022805;28;10218;-81
2022/08/28 05:49:18;;;;;;;;;7.25;7.25;;;;;;;;5021521;28;9428;-79
2022/08/28 05:51:46;;;;;;;;;5.00;5.00;;;;;;;;5024958;28;9589;-78
2022/08/28 05:54:14;;;;;;;;;5.00;5.00;;;;;;;;5023242;28;9662;-79
2022/08/28 05:56:43;;;;;;;;;4.67;4.67;;;;;;;;5019274;28;10873;-79
2022/08/28 05:59:11;;;;;;;;;6.33;6.33;;;;;;;;5024171;28;9399;-80
2022/08/28 06:01:41;;;;;;;;;5.00;5.00;;;;;;;;5020650;28;9364;-80
2022/08/28 06:04:11;;;;;;;;;5.67;5.67;;;;;;;;5022385;28;9334;-81
2022/08/28 06:06:40;;;;;;;;;7.67;7.67;;;;;;;;5021766;28;9951;-81
2022/08/28 06:09:09;;;;;;;;;5.00;5.00;;;;;;;;5020004;28;9875;-76
2022/08/28 06:11:37;;;;;;;;;5.67;4.33;;;;;;;;5019869;28;9131;-76
2022/08/28 06:14:08;;;;;;;;;4.33;4.33;;;;;;;;5023920;28;9057;-77
2022/08/28 06:16:36;;;;;;;;;9.00;6.67;;;;;;;;5023513;28;9985;-78
2022/08/28 06:19:06;;;;;;;;;5.67;4.00;;;;;;;;5021614;28;9153;-75
2022/08/28 06:21:33;;;;;;;;;7.00;6.75;;;;;;;;5022965;28;9062;-76
2022/08/28 06:24:01;;;;;;;;;6.67;6.67;;;;;;;;5021434;28;8881;-76
2022/08/28 06:26:28;;;;;;;;;7.00;5.00;;;;;;;;5024215;28;8951;-76
2022/08/28 06:29:00;;;;;;;;;3.25;3.25;;;;;;;;5023055;28;8882;-78
2022/08/28 06:31:28;;;;;;;;;5.75;5.75;;;;;;;;5022241;28;8841;-73
2022/08/28 06:33:57;;;;;;;;;6.00;6.00;;;;;;;;5011686;28;8882;-74
2022/08/28 06:36:27;;;;;;;;;6.00;5.25;;;;;;;;5023257;28;8869;-74
2022/08/28 06:38:56;;;;;;;;;7.00;6.00;;;;;;;;5022897;28;8914;-74
2022/08/28 06:41:26;;;;;;;;;6.50;6.50;;;;;;;;5022785;28;8912;-74
2022/08/28 06:43:54;;;;;;;;;5.00;5.00;;;;;;;;5023778;28;8983;-74
2022/08/28 06:46:21;;;;;;;;;4.50;4.50;;;;;;;;5023319;28;8877;-75
2022/08/28 06:48:49;;;;;;;;;5.00;5.00;;;;;;;;5020323;28;8897;-74
2022/08/28 06:51:17;;;;;;;;;5.00;5.00;;;;;;;;5007353;28;8873;-73
2022/08/28 06:53:47;;;;;;;;;5.00;5.00;;;;;;;;5020274;28;8871;-73
2022/08/28 06:56:17;;;;;;;;;7.75;5.00;;;;;;;;5018549;28;9018;-73
2022/08/28 06:58:46;;;;;;;;;5.00;5.00;;;;;;;;5018087;28;8885;-72
2022/08/28 07:01:16;;;;;;;;;3.00;3.00;;;;;;;;5020482;28;8988;-73
2022/08/28 07:03:45;;;;;;;;;5.50;5.50;;;;;;;;5022197;28;8889;-73
2022/08/28 07:06:14;;;;;;;;;5.00;5.00;;;;;;;;5022577;28;9015;-74
2022/08/28 07:08:42;;;;;;;;;4.00;4.00;;;;;;;;5004745;28;8883;-73
2022/08/28 07:11:12;;;;;;;;;6.00;5.50;;;;;;;;5022334;28;9462;-74
2022/08/28 07:13:40;;;;;;;;;4.00;4.00;;;;;;;;5020296;28;8872;-76
2022/08/28 07:16:07;;;;;;;;;6.25;6.25;;;;;;;;5020888;28;8856;-75
2022/08/28 07:18:35;;;;;;;;;3.75;3.75;;;;;;;;5020266;28;8887;-75
2022/08/28 07:21:03;;;;;;;;;6.75;6.75;;;;;;;;5022841;28;8877;-76
2022/08/28 07:23:32;;;;;;;;;8.25;5.50;;;;;;;;5022653;28;9972;-76
2022/08/28 07:25:59;;;;;;;;;5.25;5.25;;;;;;;;5022464;28;8865;-74
2022/08/28 07:28:28;;;;;;;;;5.75;4.75;;;;;;;;5018938;28;8884;-74
2022/08/28 07:30:57;;;;;;;;;6.75;5.50;;;;;;;;5017048;28;8828;-74
2022/08/28 07:33:26;;;;;;;;;7.25;6.00;;;;;;;;5019116;28;8908;-74
2022/08/28 07:35:53;;;;;;;;;5.50;5.00;;;;;;;;5021063;28;8867;-74
2022/08/28 07:38:21;;;;;;;;;4.00;4.00;;;;;;;;5019783;28;8892;-74
2022/08/28 07:40:48;;;;;;;;;6.00;3.75;;;;;;;;5005671;28;9732;-76
2022/08/28 07:46:04;;;;;;;;;6.75;4.75;;;;;;;;5013884;28;8861;-74
2022/08/28 07:48:32;;;;;;;;;4.50;4.50;;;;;;;;5019629;28;8879;-75
2022/08/28 07:50:59;;;;;;;;;5.00;5.00;;;;;;;;5021135;28;8899;-77
2022/08/28 07:53:26;;;;;;;;;4.50;4.25;;;;;;;;5021032;28;8873;-77
2022/08/28 07:55:53;;;;;;;;;7.25;5.75;;;;;;;;5021812;28;8864;-75
2022/08/28 07:58:23;;;;;;;;;5.00;5.00;;;;;;;;5018880;28;8868;-75
2022/08/28 08:00:50;;;;;;;;;6.00;6.00;;;;;;;;5018298;28;8883;-77
2022/08/28 08:03:19;;;;;;;;;7.25;7.25;;;;;;;;4987913;28;8872;-73
2022/08/28 08:05:53;;;;;;;;;4.00;4.00;;;;;;;;5019898;28;8873;-73
2022/08/28 08:08:20;;;;;;;;;4.75;4.75;;;;;;;;5016680;28;8872;-73
2022/08/28 08:10:57;;;;;;;;;5.00;4.50;;;;;;;;5000648;28;8903;-73
2022/08/28 08:13:24;;;;;;;;;5.75;5.75;;;;;;;;5016678;28;8884;-73
2022/08/28 08:15:51;;;;;;;;;4.50;4.00;;;;;;;;5017357;28;8915;-73
2022/08/28 08:18:20;;;;;;;;;8.00;6.60;;;;;;;;5014139;28;8860;-75
2022/08/28 08:20:47;;;;;;;;;7.00;5.60;;;;;;;;5018313;28;8902;-74
2022/08/28 08:23:15;;;;;;;;;7.80;4.60;;;;;;;;5015826;28;8927;-73
2022/08/28 08:25:42;;;;;;;;;6.00;6.00;;;;;;;;5013769;28;8998;-74
2022/08/28 08:28:09;;;;;;;;;4.20;4.20;;;;;;;;5017146;28;8995;-74
2022/08/28 08:30:36;;;;;;;;;6.60;6.60;;;;;;;;5013617;28;8835;-73
2022/08/28 08:33:04;;;;;;;;;7.20;7.20;;;;;;;;5012337;28;8901;-74
2022/08/28 08:35:32;;;;;;;;;5.40;5.40;;;;;;;;5009481;28;8915;-74
2022/08/28 08:37:59;;;;;;;;;8.20;7.00;;;;;;;;5016517;28;8856;-73
2022/08/28 08:40:27;;;;;;;;;8.00;5.80;;;;;;;;5018618;28;8853;-75
2022/08/28 08:42:56;;;;;;;;;9.00;7.20;;;;;;;;5016430;28;8873;-78
2022/08/28 08:45:25;;;;;;;;;7.40;7.40;;;;;;;;5006847;28;8864;-77
2022/08/28 08:47:56;;;;;;;;;5.60;5.60;;;;;;;;5019147;28;9645;-75
2022/08/28 08:50:26;;;;;;;;;5.60;5.60;;;;;;;;5017738;28;8896;-76
2022/08/28 08:53:13;;;;;;;;;6.00;6.00;;;;;;;;5020215;28;8968;-74
2022/08/28 08:55:44;;;;;;;;;6.00;6.00;;;;;;;;5019799;28;9671;-73
2022/08/28 08:58:24;;;;;;;;;6.00;4.60;;;;;;;;5017970;28;8893;-74
2022/08/28 09:00:57;;;;;;;;;6.00;6.00;;;;;;;;5015036;28;8805;-72
2022/08/28 09:03:27;;;;;;;;;6.40;6.40;;;;;;;;5016202;28;8889;-76
2022/08/28 09:06:01;;;;;;;;;5.60;5.60;;;;;;;;5014919;28;8862;-74
2022/08/28 09:11:45;;;;;;;;;7.20;7.20;;;;;;;;5017015;28;8889;-73
2022/08/28 09:14:19;;;;;;;;;8.00;6.00;;;;;;;;5018114;28;9647;-75
2022/08/28 09:16:47;;;;;;;;;5.40;5.00;;;;;;;;5018540;28;8899;-74
2022/08/28 09:19:19;;;;;;;;;6.60;6.60;;;;;;;;5019278;28;9066;-74
2022/08/28 09:21:48;;;;;;;;;10.00;7.00;;;;;;;;5018044;28;8892;-76
2022/08/28 09:24:23;;;;;;;;;5.40;5.00;;;;;;;;5018975;28;8861;-74
2022/08/28 09:26:55;;;;;;;;;6.00;5.80;;;;;;;;5017975;28;8899;-73
2022/08/28 09:29:27;;;;;;;;;7.40;5.80;;;;;;;;5017390;28;8871;-73
2022/08/28 09:31:56;;;;;;;;;5.60;5.60;;;;;;;;5017761;28;10151;-72
2022/08/28 09:34:27;;;;;;;;;4.20;4.20;;;;;;;;5016611;28;8884;-74
2022/08/28 09:36:56;;;;;;;;;8.40;7.20;;;;;;;;5019406;28;8959;-74
2022/08/28 09:39:26;;;;;;;;;7.60;6.80;;;;;;;;5016517;28;8877;-75
2022/08/28 09:44:57;;;;;;;;;5.60;5.60;;;;;;;;5020349;28;8844;-75
2022/08/28 09:47:47;;;;;;;;;16.60;15.00;;;;;;;;5018178;28;10263;-75
2022/08/28 09:50:25;;;;;;;;;7.20;7.20;;;;;;;;5019118;28;9719;-75
2022/08/28 09:52:54;;;;;;;;;6.20;5.60;;;;;;;;5013526;28;8863;-75
2022/08/28 09:55:31;;;;;;;;;35.40;32.20;;;;;;;;5017451;28;8910;-74
2022/08/28 09:57:59;;;;;;;;;19.80;19.20;;;;;;;;5015859;28;8882;-76
2022/08/28 10:00:28;;;;;;;;;7.80;7.80;;;;;;;;5016130;28;8857;-76
2022/08/28 10:03:00;;;;;;;;;13.40;8.20;;;;;;;;5023101;28;8871;-74
2022/08/28 10:05:38;;;;;;;;;8.40;8.40;;;;;;;;5018831;28;8885;-74
2022/08/28 10:08:14;;;;;;;;;4.80;4.80;;;;;;;;5022408;28;8949;-74
2022/08/28 10:10:48;;;;;;;;;10.00;8.60;;;;;;;;5022877;28;8901;-73
2022/08/28 10:13:18;;;;;;;;;13.80;12.20;;;;;;;;5023127;28;8868;-74
2022/08/28 10:15:58;;;;;;;;;25.40;22.20;;;;;;;;5025295;28;8872;-73
2022/08/28 10:18:34;;;;;;;;;14.00;12.20;;;;;;;;5021079;28;8905;-73
2022/08/28 10:21:08;;;;;;;;;11.60;11.60;;;;;;;;5025975;28;8876;-74
2022/08/28 10:23:43;;;;;;;;;13.40;13.40;;;;;;;;5021581;28;8864;-74
2022/08/28 10:26:25;;;;;;;;;8.20;8.20;;;;;;;;5023964;28;8975;-73
2022/08/28 10:29:01;;;;;;;;;12.60;11.40;;;;;;;;5023912;28;9639;-74
2022/08/28 10:31:35;;;;;;;;;16.40;16.40;;;;;;;;5020127;28;8874;-74
2022/08/28 10:34:15;;;;;;;;;13.80;12.20;;;;;;;;5023722;28;9720;-74
2022/08/28 10:36:44;;;;;;;;;13.00;11.60;;;;;;;;5023334;28;8868;-73
2022/08/28 10:39:30;;;;;;;;;16.40;12.60;;;;;;;;5022692;28;8856;-74
2022/08/28 10:42:02;;;;;;;;;10.20;8.00;;;;;;;;5024105;28;8873;-76
2022/08/28 10:44:36;;;;;;;;;6.40;6.20;;;;;;;;5020979;28;8869;-75
2022/08/28 10:47:05;;;;;;;;;4.80;4.80;;;;;;;;5023210;28;8899;-73
2022/08/28 10:49:35;;;;;;;;;6.20;6.20;;;;;;;;5021348;28;9684;-74
2022/08/28 10:52:06;;;;;;;;;8.40;8.40;;;;;;;;5023339;28;8934;-74
2022/08/28 10:54:39;;;;;;;;;7.00;7.00;;;;;;;;5023609;28;8974;-73
2022/08/28 10:57:15;;;;;;;;;6.00;6.00;;;;;;;;5025270;28;8963;-80
2022/08/28 10:59:43;;;;;;;;;8.00;8.00;;;;;;;;5021809;28;8848;-74
2022/08/28 11:02:13;;;;;;;;;7.60;7.60;;;;;;;;5021783;28;8841;-75
2022/08/28 11:04:40;;;;;;;;;7.20;7.20;;;;;;;;5023277;28;8869;-75
2022/08/28 11:07:12;;;;;;;;;9.40;8.60;;;;;;;;5021937;28;8904;-74
2022/08/28 11:09:48;;;;;;;;;7.80;7.80;;;;;;;;5022322;28;8896;-73
2022/08/28 11:12:36;;;;;;;;;7.40;7.40;;;;;;;;5023999;28;8848;-75
2022/08/28 11:15:36;;;;;;;;;8.00;8.00;;;;;;;;5021888;28;8864;-74
2022/08/28 11:18:28;;;;;;;;;7.80;6.80;;;;;;;;5021452;28;8872;-74
2022/08/28 11:20:58;;;;;;;;;45.00;38.00;;;;;;;;5021226;28;8884;-76
2022/08/28 11:23:31;;;;;;;;;56.00;45.00;;;;;;;;5022182;28;8926;-74
2022/08/28 11:26:04;;;;;;;;;38.40;32.00;;;;;;;;5023969;28;8882;-74
2022/08/28 11:28:46;;;;;;;;;21.00;21.00;;;;;;;;5022172;28;8901;-74
2022/08/28 11:31:38;;;;;;;;;83.25;81.50;;;;;;;;5021773;28;8820;-74
2022/08/28 11:34:06;;;;;;;;;47.20;39.00;;;;;;;;5006869;28;10533;-74
2022/08/28 11:36:57;;;;;;;;;9.60;9.60;;;;;;;;5022167;28;9000;-75
2022/08/28 11:39:24;;;;;;;;;4.80;4.80;;;;;;;;5018878;28;8881;-74
2022/08/28 11:42:31;;;;;;;;;5.20;5.20;;;;;;;;5014799;28;8982;-75
2022/08/28 11:45:00;;;;;;;;;6.00;6.00;;;;;;;;4977127;28;9018;-75
2022/08/28 11:47:50;;;;;;;;;5.20;5.20;;;;;;;;5019388;28;8860;-74
2022/08/28 11:50:33;;;;;;;;;4.00;4.00;;;;;;;;5003287;28;9658;-74
2022/08/28 11:53:23;;;;;;;;;6.00;6.00;;;;;;;;5019406;28;8903;-75
2022/08/28 11:56:25;;;;;;;;;5.60;4.60;;;;;;;;5019615;28;8988;-74
2022/08/28 11:58:59;;;;;;;;;6.00;6.00;;;;;;;;5019776;28;8944;-73
2022/08/28 12:01:30;;;;;;;;;6.00;6.00;;;;;;;;5021340;28;8837;-73
2022/08/28 12:03:59;;;;;;;;;8.00;6.20;;;;;;;;5021541;28;10058;-79
2022/08/28 12:06:54;;;;;;;;;7.80;6.20;;;;;;;;5021414;28;8888;-74
2022/08/28 12:09:43;;;;;;;;;7.60;6.00;;;;;;;;4985614;28;8903;-74
2022/08/28 12:12:13;;;;;;;;;6.00;6.00;;;;;;;;5018911;28;9689;-75
2022/08/28 12:15:06;;;;;;;;;7.00;5.40;;;;;;;;5022932;28;8880;-73
2022/08/28 12:17:47;;;;;;;;;5.00;5.00;;;;;;;;5018975;28;9626;-72
2022/08/28 12:20:28;;;;;;;;;4.60;4.60;;;;;;;;5017087;28;8872;-75
2022/08/28 12:22:58;;;;;;;;;5.60;5.00;;;;;;;;5022702;28;9682;-73
2022/08/28 12:25:30;;;;;;;;;4.80;4.80;;;;;;;;5019450;28;8877;-75
2022/08/28 12:28:00;;;;;;;;;5.00;5.00;;;;;;;;5023263;28;8885;-73
2022/08/28 12:30:30;;;;;;;;;4.80;4.80;;;;;;;;5020689;28;8785;-74
2022/08/28 12:33:06;;;;;;;;;6.20;4.40;;;;;;;;5019373;28;8864;-73
2022/08/28 12:35:33;;;;;;;;;4.80;4.80;;;;;;;;5006131;28;8865;-74
2022/08/28 12:38:03;;;;;;;;;4.60;4.60;;;;;;;;5008222;28;8899;-75
2022/08/28 12:40:34;;;;;;;;;5.40;3.80;;;;;;;;5021456;28;8845;-73
2022/08/28 12:43:05;;;;;;;;;5.00;5.00;;;;;;;;5019970;28;8874;-73
2022/08/28 12:45:37;;;;;;;;;5.60;5.60;;;;;;;;5022415;28;8868;-73
2022/08/28 12:48:15;;;;;;;;;7.60;4.60;;;;;;;;5006299;28;8856;-75
2022/08/28 12:50:43;;;;;;;;;5.40;5.40;;;;;;;;5020799;28;8988;-74
2022/08/28 12:53:15;;;;;;;;;4.00;4.00;;;;;;;;5004506;28;8889;-73
2022/08/28 12:55:44;;;;;;;;;6.00;6.00;;;;;;;;5021638;28;8904;-73
2022/08/28 12:58:13;;;;;;;;;5.00;5.00;;;;;;;;5022160;28;9061;-73
2022/08/28 13:00:51;;;;;;;;;4.40;4.40;;;;;;;;5020472;28;8871;-73
2022/08/28 13:03:20;;;;;;;;;4.00;4.00;;;;;;;;5021641;28;8890;-74
2022/08/28 13:05:57;;;;;;;;;3.80;3.80;;;;;;;;5022302;28;8914;-74
2022/08/28 13:08:25;;;;;;;;;5.00;5.00;;;;;;;;5020771;28;8889;-76
2022/08/28 13:10:52;;;;;;;;;4.80;4.80;;;;;;;;5021719;28;8909;-76
2022/08/28 13:13:23;;;;;;;;;7.00;7.00;;;;;;;;5020760;28;8873;-75
2022/08/28 13:15:55;;;;;;;;;5.40;5.40;;;;;;;;5021277;28;8872;-74
2022/08/28 13:18:42;;;;;;;;;3.00;3.00;;;;;;;;5021667;28;8878;-76
2022/08/28 13:21:15;;;;;;;;;4.40;4.40;;;;;;;;5020504;28;8909;-75
2022/08/28 13:23:42;;;;;;;;;4.60;4.60;;;;;;;;5022878;28;8880;-76
2022/08/28 13:26:10;;;;;;;;;4.40;4.40;;;;;;;;5021177;28;8902;-77
2022/08/28 13:28:39;;;;;;;;;3.00;3.00;;;;;;;;5018131;28;8863;-76
2022/08/28 13:31:07;;;;;;;;;5.00;5.00;;;;;;;;5020456;28;8827;-76
2022/08/28 13:33:34;;;;;;;;;3.80;3.80;;;;;;;;5008185;28;8885;-76
2022/08/28 13:36:21;;;;;;;;;7.00;4.00;;;;;;;;5026013;28;8840;-76
2022/08/28 13:38:48;;;;;;;;;4.80;4.80;;;;;;;;5021521;28;8877;-76
2022/08/28 13:41:16;;;;;;;;;4.60;4.60;;;;;;;;5026186;28;8896;-76
2022/08/28 13:43:45;;;;;;;;;3.60;3.60;;;;;;;;5021879;28;8864;-76
2022/08/28 13:46:13;;;;;;;;;6.00;4.40;;;;;;;;5025526;28;8897;-76
2022/08/28 13:48:40;;;;;;;;;4.80;4.80;;;;;;;;5025130;28;8873;-76
2022/08/28 13:51:11;;;;;;;;;5.60;4.60;;;;;;;;5024212;28;8864;-73
2022/08/28 13:53:40;;;;;;;;;3.80;3.80;;;;;;;;5025213;28;8852;-77
2022/08/28 13:56:10;;;;;;;;;4.20;4.20;;;;;;;;5024313;28;8887;-76
2022/08/28 13:58:37;;;;;;;;;3.20;3.20;;;;;;;;5025536;28;8885;-76
2022/08/28 14:01:06;;;;;;;;;5.00;5.00;;;;;;;;5023554;28;9670;-76
2022/08/28 14:03:36;;;;;;;;;2.00;2.00;;;;;;;;5025273;28;8979;-77
2022/08/28 14:06:06;;;;;;;;;5.00;4.00;;;;;;;;5024842;28;8861;-76
2022/08/28 14:08:34;;;;;;;;;5.00;5.00;;;;;;;;5024425;28;8934;-76
2022/08/28 14:11:02;;;;;;;;;3.80;3.80;;;;;;;;5024324;28;8860;-76
2022/08/28 14:13:29;;;;;;;;;5.80;5.80;;;;;;;;5008118;28;8892;-77
2022/08/28 14:15:57;;;;;;;;;4.20;3.20;;;;;;;;5024557;28;8919;-77
2022/08/28 14:18:25;;;;;;;;;4.20;3.80;;;;;;;;5027437;28;8883;-76
2022/08/28 14:20:52;;;;;;;;;3.00;3.00;;;;;;;;5028080;28;8892;-76
2022/08/28 14:23:19;;;;;;;;;3.00;3.00;;;;;;;;5024175;28;8989;-76
2022/08/28 14:25:48;;;;;;;;;3.00;3.00;;;;;;;;5023971;28;9021;-75
2022/08/28 14:28:16;;;;;;;;;4.20;4.20;;;;;;;;5025181;28;8907;-75
2022/08/28 14:30:44;;;;;;;;;3.00;3.00;;;;;;;;5023303;28;8840;-75
2022/08/28 14:33:11;;;;;;;;;4.20;4.00;;;;;;;;5025106;28;8904;-73
2022/08/28 14:35:42;;;;;;;;;3.00;3.00;;;;;;;;5023592;28;8873;-75
2022/08/28 14:38:11;;;;;;;;;5.20;4.40;;;;;;;;5021825;28;8998;-74
2022/08/28 14:40:42;;;;;;;;;3.40;3.40;;;;;;;;5023506;28;8860;-76
2022/08/28 14:43:12;;;;;;;;;3.00;3.00;;;;;;;;5023233;28;8871;-75
2022/08/28 14:45:45;;;;;;;;;3.80;3.80;;;;;;;;5020413;28;8868;-76
2022/08/28 14:48:13;;;;;;;;;3.00;3.00;;;;;;;;5020459;28;9274;-76
2022/08/28 14:50:40;;;;;;;;;7.60;4.80;;;;;;;;5023491;28;8869;-75
2022/08/28 14:53:08;;;;;;;;;2.60;2.60;;;;;;;;5023176;28;8887;-75
2022/08/28 14:55:40;;;;;;;;;2.40;2.40;;;;;;;;5024449;28;8876;-75
2022/08/28 14:58:07;;;;;;;;;4.00;4.00;;;;;;;;5008187;28;8849;-75
2022/08/28 15:00:40;;;;;;;;;2.80;2.80;;;;;;;;5021550;28;8869;-74
2022/08/28 15:03:08;;;;;;;;;2.40;2.40;;;;;;;;5023891;28;8868;-76
2022/08/28 15:05:35;;;;;;;;;1.00;1.00;;;;;;;;5022710;28;8977;-74
2022/08/28 15:08:03;;;;;;;;;3.60;3.60;;;;;;;;5024415;28;8942;-76
2022/08/28 15:10:30;;;;;;;;;4.20;3.00;;;;;;;;5022208;28;8903;-73
2022/08/28 15:12:57;;;;;;;;;3.00;3.00;;;;;;;;5023109;28;8967;-74
2022/08/28 15:15:24;;;;;;;;;3.60;3.00;;;;;;;;5023069;28;8989;-73
2022/08/28 15:17:53;;;;;;;;;5.00;3.60;;;;;;;;5022495;28;8890;-73
2022/08/28 15:20:20;;;;;;;;;2.60;2.60;;;;;;;;5023313;28;9014;-73
2022/08/28 15:22:47;;;;;;;;;3.80;3.80;;;;;;;;5021936;28;8890;-74
2022/08/28 15:25:15;;;;;;;;;2.40;2.40;;;;;;;;5012100;28;8877;-74